L. J. Sullivan — WDD4355 — position and weather

sailwx.info

Track history (hours):
 
Tides and Currents Weather Stations Pressure Air Temp Water Temp Dewpoint Dewpoint Depression Visibility Wind Speed Wind Dir Waves Ship Positions

L. J. Sullivan

Owner: American Commercial Lines LLC, Jeffersonville, IN. More information available from US FCC via Universal Licensing System and Coast Guard Vessel Documentation Center.

Last reported at 2017-Sep-08 14:46 UTC. Time now 2017-Sep-21 16:13 UTC.
Position N 38°59' W 090°33'.
Warning: this ship's position is 13 days out of date.

Length 46 m; draft 3 m.

Type: Towing. MMSI: 367143670.

Date/timePositionNaut miles runAvg speedWind from/ knotsBaromVisibWave heightAir tempDewpointWater temp
2017-Sep-08 14:46N 38°59' W 090°33'1 3.9
2017-Sep-08 14:30N 38°58' W 090°33'2 3.4
2017-Sep-08 14:00N 38°57' W 090°31'2 3.7
2017-Sep-08 13:31N 38°58' W 090°29'2 3.4
2017-Sep-08 13:00N 38°58' W 090°27'2 3.2
2017-Sep-08 12:31N 38°58' W 090°25'2 3.5
2017-Sep-08 12:01N 38°57' W 090°22'2 4.2
2017-Sep-08 11:30N 38°56' W 090°20'2 4.1
2017-Sep-08 11:01N 38°55' W 090°18'2 4.4
2017-Sep-08 10:29N 38°55' W 090°15'2 3.7
2017-Sep-08 09:57N 38°54' W 090°13'2 4.3
2017-Sep-08 09:30N 38°53' W 090°11'3 1.3
2017-Sep-08 07:33N 38°52' W 090°08'0 0.1
2017-Sep-08 07:31N 38°52' W 090°08'0 0.0
2017-Sep-08 03:23N 38°52' W 090°08'1 3.7
2017-Sep-08 02:59N 38°51' W 090°06'5 0.2
2017-Sep-06 19:53N 38°53' W 090°12'3 0.2
2017-Sep-06 05:59N 38°55' W 090°14'3 5.5
2017-Sep-06 05:30N 38°55' W 090°18'3 5.5
2017-Sep-06 05:00N 38°57' W 090°21'3 5.9
2017-Sep-06 04:30N 38°58' W 090°24'3 5.6
2017-Sep-06 04:00N 38°57' W 090°28'3 5.7
2017-Sep-06 03:30N 38°55' W 090°30'3 5.9
2017-Sep-06 03:00N 38°53' W 090°32'  
2017-Sep-03 21:19N 40°46' W 091°06'2 5.9
2017-Sep-03 21:00N 40°47' W 091°06'1 2.3
2017-Sep-03 20:31N 40°49' W 091°06'3 5.1
2017-Sep-03 20:00N 40°51' W 091°04'3 5.6
2017-Sep-03 19:30N 40°53' W 091°02'0 0.3
2017-Sep-03 19:00N 40°53' W 091°01'0 0.2
2017-Sep-03 18:31N 40°53' W 091°01'0 0.1
2017-Sep-03 18:00N 40°53' W 091°01'0 0.4
2017-Sep-03 17:31N 40°53' W 091°01'1 1.4
2017-Sep-03 17:00N 40°54' W 091°01'2 5.0
2017-Sep-03 16:30N 40°55' W 090°58'3 5.2
2017-Sep-03 16:01N 40°58' W 090°57'1 1.8
2017-Sep-03 15:30N 40°59' W 090°58'0 0.0
2017-Sep-03 14:59N 40°59' W 090°58'0 0.0
2017-Sep-03 14:00N 40°59' W 090°58'0 0.0
2017-Sep-03 13:30N 40°59' W 090°58'0 0.0
2017-Sep-03 13:00N 40°59' W 090°58'0 0.0
2017-Sep-03 12:30N 40°59' W 090°58'2 4.0
2017-Sep-03 12:00N 41°00' W 090°57'3 5.9
2017-Sep-03 11:31N 41°03' W 090°57'3 5.7
2017-Sep-03 11:00N 41°06' W 090°57'3 6.0
2017-Sep-03 10:30N 41°09' W 090°59'2 4.4
2017-Sep-03 10:00N 41°10' W 091°02'  
Track history (hours):
 
Tides and Currents Weather Stations Pressure Air Temp Water Temp Dewpoint Dewpoint Depression Visibility Wind Speed Wind Dir Waves Ship Positions

L. J. Sullivan

Owner: American Commercial Lines LLC, Jeffersonville, IN. More information available from US FCC via Universal Licensing System and Coast Guard Vessel Documentation Center.

Last reported at 2017-Sep-08 14:46 UTC. Time now 2017-Sep-21 16:13 UTC.
Position N 38°59' W 090°33'.
Warning: this ship's position is 13 days out of date.

Length 46 m; draft 3 m.

Type: Towing. MMSI: 367143670.

Date/timePositionNaut miles runAvg speedWind from/ knotsBaromVisibWave heightAir tempDewpointWater temp
2017-Sep-08 14:46N 38°59' W 090°33'1 3.9
2017-Sep-08 14:30N 38°58' W 090°33'2 3.4
2017-Sep-08 14:00N 38°57' W 090°31'2 3.7
2017-Sep-08 13:31N 38°58' W 090°29'2 3.4
2017-Sep-08 13:00N 38°58' W 090°27'2 3.2
2017-Sep-08 12:31N 38°58' W 090°25'2 3.5
2017-Sep-08 12:01N 38°57' W 090°22'2 4.2
2017-Sep-08 11:30N 38°56' W 090°20'2 4.1
2017-Sep-08 11:01N 38°55' W 090°18'2 4.4
2017-Sep-08 10:29N 38°55' W 090°15'2 3.7
2017-Sep-08 09:57N 38°54' W 090°13'2 4.3
2017-Sep-08 09:30N 38°53' W 090°11'3 1.3
2017-Sep-08 07:33N 38°52' W 090°08'0 0.1
2017-Sep-08 07:31N 38°52' W 090°08'0 0.0
2017-Sep-08 03:23N 38°52' W 090°08'1 3.7
2017-Sep-08 02:59N 38°51' W 090°06'5 0.2
2017-Sep-06 19:53N 38°53' W 090°12'3 0.2
2017-Sep-06 05:59N 38°55' W 090°14'3 5.5
2017-Sep-06 05:30N 38°55' W 090°18'3 5.5
2017-Sep-06 05:00N 38°57' W 090°21'3 5.9
2017-Sep-06 04:30N 38°58' W 090°24'3 5.6
2017-Sep-06 04:00N 38°57' W 090°28'3 5.7
2017-Sep-06 03:30N 38°55' W 090°30'3 5.9
2017-Sep-06 03:00N 38°53' W 090°32'  
2017-Sep-03 21:19N 40°46' W 091°06'2 5.9
2017-Sep-03 21:00N 40°47' W 091°06'1 2.3
2017-Sep-03 20:31N 40°49' W 091°06'3 5.1
2017-Sep-03 20:00N 40°51' W 091°04'3 5.6
2017-Sep-03 19:30N 40°53' W 091°02'0 0.3
2017-Sep-03 19:00N 40°53' W 091°01'0 0.2
2017-Sep-03 18:31N 40°53' W 091°01'0 0.1
2017-Sep-03 18:00N 40°53' W 091°01'0 0.4
2017-Sep-03 17:31N 40°53' W 091°01'1 1.4
2017-Sep-03 17:00N 40°54' W 091°01'2 5.0
2017-Sep-03 16:30N 40°55' W 090°58'3 5.2
2017-Sep-03 16:01N 40°58' W 090°57'1 1.8
2017-Sep-03 15:30N 40°59' W 090°58'0 0.0
2017-Sep-03 14:59N 40°59' W 090°58'0 0.0
2017-Sep-03 14:00N 40°59' W 090°58'0 0.0
2017-Sep-03 13:30N 40°59' W 090°58'0 0.0
2017-Sep-03 13:00N 40°59' W 090°58'0 0.0
2017-Sep-03 12:30N 40°59' W 090°58'2 4.0
2017-Sep-03 12:00N 41°00' W 090°57'3 5.9
2017-Sep-03 11:31N 41°03' W 090°57'3 5.7
2017-Sep-03 11:00N 41°06' W 090°57'3 6.0
2017-Sep-03 10:30N 41°09' W 090°59'2 4.4
2017-Sep-03 10:00N 41°10' W 091°02'  

Dump ship's entire track history